sensor_id;sensor_type;location;lat;lon;timestamp;P1;durP1;ratioP1;P2;durP2;ratioP2
39050;SDS011;24805;55.852;37.644;2024-03-17T00:04:31;24.27;;;8.07;;
39050;SDS011;24805;55.852;37.644;2024-03-17T00:09:33;25.25;;;9.77;;
39050;SDS011;24805;55.852;37.644;2024-03-17T00:14:34;24.55;;;9.77;;
39050;SDS011;24805;55.852;37.644;2024-03-17T00:19:35;28.23;;;9.05;;
39050;SDS011;24805;55.852;37.644;2024-03-17T00:24:37;25.38;;;9.75;;
39050;SDS011;24805;55.852;37.644;2024-03-17T00:29:38;28.42;;;9.30;;
39050;SDS011;24805;55.852;37.644;2024-03-17T00:34:39;28.83;;;9.50;;
39050;SDS011;24805;55.852;37.644;2024-03-17T00:39:40;31.90;;;11.30;;
39050;SDS011;24805;55.852;37.644;2024-03-17T00:44:41;27.42;;;9.85;;
39050;SDS011;24805;55.852;37.644;2024-03-17T00:49:43;24.63;;;9.05;;
39050;SDS011;24805;55.852;37.644;2024-03-17T00:54:46;29.92;;;10.43;;
39050;SDS011;24805;55.852;37.644;2024-03-17T00:59:49;25.70;;;8.63;;
39050;SDS011;24805;55.852;37.644;2024-03-17T01:04:51;28.17;;;9.95;;
39050;SDS011;24805;55.852;37.644;2024-03-17T01:09:52;28.58;;;8.70;;
39050;SDS011;24805;55.852;37.644;2024-03-17T01:14:55;27.90;;;9.23;;
39050;SDS011;24805;55.852;37.644;2024-03-17T01:19:56;33.60;;;9.88;;
39050;SDS011;24805;55.852;37.644;2024-03-17T01:24:57;33.92;;;10.00;;
39050;SDS011;24805;55.852;37.644;2024-03-17T01:29:58;35.05;;;9.77;;
39050;SDS011;24805;55.852;37.644;2024-03-17T01:34:59;22.27;;;9.07;;
39050;SDS011;24805;55.852;37.644;2024-03-17T01:40:00;33.35;;;9.20;;
39050;SDS011;24805;55.852;37.644;2024-03-17T01:45:13;33.58;;;9.63;;
39050;SDS011;24805;55.852;37.644;2024-03-17T01:50:31;24.92;;;9.73;;
39050;SDS011;24805;55.852;37.644;2024-03-17T01:55:34;29.52;;;9.88;;
39050;SDS011;24805;55.852;37.644;2024-03-17T02:00:38;33.45;;;9.30;;
39050;SDS011;24805;55.852;37.644;2024-03-17T02:05:40;21.25;;;10.73;;
39050;SDS011;24805;55.852;37.644;2024-03-17T02:10:41;30.90;;;9.52;;
39050;SDS011;24805;55.852;37.644;2024-03-17T02:15:43;22.50;;;8.35;;
39050;SDS011;24805;55.852;37.644;2024-03-17T02:21:04;26.58;;;9.93;;
39050;SDS011;24805;55.852;37.644;2024-03-17T02:26:06;21.58;;;9.82;;
39050;SDS011;24805;55.852;37.644;2024-03-17T02:31:08;25.05;;;10.25;;
39050;SDS011;24805;55.852;37.644;2024-03-17T02:36:11;26.08;;;9.43;;
39050;SDS011;24805;55.852;37.644;2024-03-17T02:41:13;27.60;;;10.77;;
39050;SDS011;24805;55.852;37.644;2024-03-17T02:46:14;30.08;;;11.65;;
39050;SDS011;24805;55.852;37.644;2024-03-17T02:51:18;23.13;;;10.13;;
39050;SDS011;24805;55.852;37.644;2024-03-17T02:56:20;33.85;;;12.25;;
39050;SDS011;24805;55.852;37.644;2024-03-17T03:01:22;26.15;;;12.43;;
39050;SDS011;24805;55.852;37.644;2024-03-17T03:06:23;26.33;;;10.43;;
39050;SDS011;24805;55.852;37.644;2024-03-17T03:11:25;34.97;;;11.80;;
39050;SDS011;24805;55.852;37.644;2024-03-17T03:16:26;27.38;;;11.20;;
39050;SDS011;24805;55.852;37.644;2024-03-17T03:21:28;32.03;;;10.20;;
39050;SDS011;24805;55.852;37.644;2024-03-17T03:26:29;22.92;;;10.43;;
39050;SDS011;24805;55.852;37.644;2024-03-17T03:31:33;19.45;;;7.70;;
39050;SDS011;24805;55.852;37.644;2024-03-17T03:36:35;26.50;;;9.50;;
39050;SDS011;24805;55.852;37.644;2024-03-17T03:41:36;31.35;;;10.80;;
39050;SDS011;24805;55.852;37.644;2024-03-17T03:46:38;28.40;;;11.68;;
39050;SDS011;24805;55.852;37.644;2024-03-17T03:51:40;27.30;;;11.23;;
39050;SDS011;24805;55.852;37.644;2024-03-17T03:56:41;40.50;;;13.15;;
39050;SDS011;24805;55.852;37.644;2024-03-17T04:01:42;29.63;;;12.85;;
39050;SDS011;24805;55.852;37.644;2024-03-17T04:06:43;29.52;;;11.48;;
39050;SDS011;24805;55.852;37.644;2024-03-17T04:11:44;40.45;;;13.05;;
39050;SDS011;24805;55.852;37.644;2024-03-17T04:16:45;36.20;;;12.32;;
39050;SDS011;24805;55.852;37.644;2024-03-17T04:21:47;31.58;;;12.32;;
39050;SDS011;24805;55.852;37.644;2024-03-17T04:26:48;31.15;;;13.82;;
39050;SDS011;24805;55.852;37.644;2024-03-17T04:31:49;34.70;;;10.98;;
39050;SDS011;24805;55.852;37.644;2024-03-17T04:36:50;36.47;;;13.88;;
39050;SDS011;24805;55.852;37.644;2024-03-17T04:41:51;35.60;;;13.10;;
39050;SDS011;24805;55.852;37.644;2024-03-17T04:46:53;35.60;;;13.70;;
39050;SDS011;24805;55.852;37.644;2024-03-17T04:51:55;35.55;;;13.60;;
39050;SDS011;24805;55.852;37.644;2024-03-17T04:56:56;29.38;;;13.43;;
39050;SDS011;24805;55.852;37.644;2024-03-17T05:01:57;36.20;;;14.27;;
39050;SDS011;24805;55.852;37.644;2024-03-17T05:06:58;33.97;;;13.35;;
39050;SDS011;24805;55.852;37.644;2024-03-17T05:11:59;34.70;;;15.60;;
39050;SDS011;24805;55.852;37.644;2024-03-17T05:17:00;30.48;;;13.85;;
39050;SDS011;24805;55.852;37.644;2024-03-17T05:22:01;38.37;;;15.10;;
39050;SDS011;24805;55.852;37.644;2024-03-17T05:27:03;30.23;;;13.57;;
39050;SDS011;24805;55.852;37.644;2024-03-17T05:32:04;34.72;;;13.75;;
39050;SDS011;24805;55.852;37.644;2024-03-17T05:37:06;39.00;;;14.25;;
39050;SDS011;24805;55.852;37.644;2024-03-17T05:42:07;39.70;;;15.93;;
39050;SDS011;24805;55.852;37.644;2024-03-17T05:47:08;35.10;;;14.57;;
39050;SDS011;24805;55.852;37.644;2024-03-17T05:52:10;37.15;;;14.68;;
39050;SDS011;24805;55.852;37.644;2024-03-17T05:57:11;31.50;;;13.57;;
39050;SDS011;24805;55.852;37.644;2024-03-17T06:02:14;37.60;;;14.20;;
39050;SDS011;24805;55.852;37.644;2024-03-17T06:07:16;41.92;;;14.18;;
39050;SDS011;24805;55.852;37.644;2024-03-17T06:12:17;38.53;;;13.90;;
39050;SDS011;24805;55.852;37.644;2024-03-17T06:17:18;42.07;;;15.57;;
39050;SDS011;24805;55.852;37.644;2024-03-17T06:22:20;38.67;;;14.53;;
39050;SDS011;24805;55.852;37.644;2024-03-17T06:27:21;37.45;;;14.95;;
39050;SDS011;24805;55.852;37.644;2024-03-17T06:32:22;36.70;;;13.88;;
39050;SDS011;24805;55.852;37.644;2024-03-17T06:37:24;43.03;;;15.88;;
39050;SDS011;24805;55.852;37.644;2024-03-17T06:42:25;35.72;;;14.07;;
39050;SDS011;24805;55.852;37.644;2024-03-17T06:47:27;39.60;;;14.55;;
39050;SDS011;24805;55.852;37.644;2024-03-17T06:52:28;38.93;;;14.17;;
39050;SDS011;24805;55.852;37.644;2024-03-17T06:57:29;41.25;;;14.15;;
39050;SDS011;24805;55.852;37.644;2024-03-17T07:02:31;40.80;;;14.73;;
39050;SDS011;24805;55.852;37.644;2024-03-17T07:07:33;44.97;;;14.60;;
39050;SDS011;24805;55.852;37.644;2024-03-17T07:12:35;46.80;;;15.90;;
39050;SDS011;24805;55.852;37.644;2024-03-17T07:17:36;45.00;;;15.40;;
39050;SDS011;24805;55.852;37.644;2024-03-17T07:22:37;48.20;;;16.15;;
39050;SDS011;24805;55.852;37.644;2024-03-17T07:27:38;38.60;;;14.73;;
39050;SDS011;24805;55.852;37.644;2024-03-17T07:32:40;40.22;;;13.98;;
39050;SDS011;24805;55.852;37.644;2024-03-17T07:37:42;53.47;;;15.48;;
39050;SDS011;24805;55.852;37.644;2024-03-17T07:42:43;49.10;;;16.17;;
39050;SDS011;24805;55.852;37.644;2024-03-17T07:47:45;38.10;;;15.50;;
39050;SDS011;24805;55.852;37.644;2024-03-17T07:52:47;54.00;;;16.60;;
39050;SDS011;24805;55.852;37.644;2024-03-17T07:57:48;51.83;;;17.10;;
39050;SDS011;24805;55.852;37.644;2024-03-17T08:02:49;59.40;;;15.87;;
39050;SDS011;24805;55.852;37.644;2024-03-17T08:07:50;55.40;;;16.33;;
39050;SDS011;24805;55.852;37.644;2024-03-17T08:12:51;52.80;;;15.83;;
39050;SDS011;24805;55.852;37.644;2024-03-17T08:17:53;50.33;;;16.13;;
39050;SDS011;24805;55.852;37.644;2024-03-17T08:22:54;40.57;;;15.10;;
39050;SDS011;24805;55.852;37.644;2024-03-17T08:27:55;42.58;;;16.33;;
39050;SDS011;24805;55.852;37.644;2024-03-17T08:32:57;55.08;;;15.50;;
39050;SDS011;24805;55.852;37.644;2024-03-17T08:37:58;47.57;;;15.57;;
39050;SDS011;24805;55.852;37.644;2024-03-17T08:43:01;44.80;;;13.75;;
39050;SDS011;24805;55.852;37.644;2024-03-17T08:48:02;48.53;;;15.23;;
39050;SDS011;24805;55.852;37.644;2024-03-17T08:53:03;43.47;;;14.57;;
39050;SDS011;24805;55.852;37.644;2024-03-17T08:58:05;45.80;;;15.95;;
39050;SDS011;24805;55.852;37.644;2024-03-17T09:03:09;50.10;;;18.43;;
39050;SDS011;24805;55.852;37.644;2024-03-17T09:08:15;48.72;;;15.90;;
39050;SDS011;24805;55.852;37.644;2024-03-17T09:13:24;46.50;;;16.20;;
39050;SDS011;24805;55.852;37.644;2024-03-17T09:18:27;42.08;;;13.77;;
39050;SDS011;24805;55.852;37.644;2024-03-17T09:23:29;52.40;;;16.42;;
39050;SDS011;24805;55.852;37.644;2024-03-17T09:28:31;48.75;;;15.88;;
39050;SDS011;24805;55.852;37.644;2024-03-17T09:33:34;40.88;;;14.82;;
39050;SDS011;24805;55.852;37.644;2024-03-17T09:38:36;41.15;;;13.68;;
39050;SDS011;24805;55.852;37.644;2024-03-17T09:43:38;61.78;;;14.65;;
39050;SDS011;24805;55.852;37.644;2024-03-17T09:48:39;48.63;;;14.07;;
39050;SDS011;24805;55.852;37.644;2024-03-17T09:53:40;41.27;;;14.80;;
39050;SDS011;24805;55.852;37.644;2024-03-17T09:58:42;44.95;;;14.40;;
39050;SDS011;24805;55.852;37.644;2024-03-17T10:09:18;43.53;;;14.95;;
39050;SDS011;24805;55.852;37.644;2024-03-17T10:14:21;42.35;;;14.73;;
39050;SDS011;24805;55.852;37.644;2024-03-17T10:24:28;32.78;;;12.30;;
39050;SDS011;24805;55.852;37.644;2024-03-17T10:29:31;50.78;;;15.80;;
39050;SDS011;24805;55.852;37.644;2024-03-17T10:34:33;40.45;;;14.30;;
39050;SDS011;24805;55.852;37.644;2024-03-17T10:39:37;40.17;;;14.40;;
39050;SDS011;24805;55.852;37.644;2024-03-17T10:44:41;49.08;;;14.93;;
39050;SDS011;24805;55.852;37.644;2024-03-17T10:49:53;38.70;;;12.82;;
39050;SDS011;24805;55.852;37.644;2024-03-17T10:54:56;36.20;;;12.13;;
39050;SDS011;24805;55.852;37.644;2024-03-17T10:59:57;38.17;;;12.98;;
39050;SDS011;24805;55.852;37.644;2024-03-17T11:05:22;39.17;;;12.80;;
39050;SDS011;24805;55.852;37.644;2024-03-17T11:10:24;36.40;;;10.23;;
39050;SDS011;24805;55.852;37.644;2024-03-17T11:20:39;44.92;;;10.63;;
39050;SDS011;24805;55.852;37.644;2024-03-17T11:25:42;37.28;;;10.30;;
39050;SDS011;24805;55.852;37.644;2024-03-17T11:30:52;29.42;;;10.10;;
39050;SDS011;24805;55.852;37.644;2024-03-17T11:46:38;37.60;;;7.10;;
39050;SDS011;24805;55.852;37.644;2024-03-17T11:51:39;17.75;;;6.47;;
39050;SDS011;24805;55.852;37.644;2024-03-17T11:56:43;22.00;;;7.15;;
39050;SDS011;24805;55.852;37.644;2024-03-17T12:01:46;18.38;;;6.13;;
39050;SDS011;24805;55.852;37.644;2024-03-17T12:06:55;20.17;;;7.28;;
39050;SDS011;24805;55.852;37.644;2024-03-17T12:12:10;18.58;;;6.20;;
39050;SDS011;24805;55.852;37.644;2024-03-17T12:17:21;22.10;;;6.13;;
39050;SDS011;24805;55.852;37.644;2024-03-17T12:22:24;29.92;;;6.90;;
39050;SDS011;24805;55.852;37.644;2024-03-17T12:27:28;25.85;;;6.30;;
39050;SDS011;24805;55.852;37.644;2024-03-17T12:32:29;21.90;;;6.23;;
39050;SDS011;24805;55.852;37.644;2024-03-17T12:37:30;29.95;;;7.72;;
39050;SDS011;24805;55.852;37.644;2024-03-17T12:42:37;28.80;;;6.47;;
39050;SDS011;24805;55.852;37.644;2024-03-17T12:47:39;20.27;;;6.07;;
39050;SDS011;24805;55.852;37.644;2024-03-17T12:52:43;32.88;;;6.95;;
39050;SDS011;24805;55.852;37.644;2024-03-17T12:58:14;24.70;;;7.07;;
39050;SDS011;24805;55.852;37.644;2024-03-17T13:03:34;20.33;;;6.00;;
39050;SDS011;24805;55.852;37.644;2024-03-17T13:08:37;18.75;;;7.40;;
39050;SDS011;24805;55.852;37.644;2024-03-17T13:13:38;26.40;;;6.47;;
39050;SDS011;24805;55.852;37.644;2024-03-17T13:18:39;26.17;;;7.20;;
39050;SDS011;24805;55.852;37.644;2024-03-17T13:23:40;28.20;;;6.67;;
39050;SDS011;24805;55.852;37.644;2024-03-17T13:28:42;28.77;;;6.63;;
39050;SDS011;24805;55.852;37.644;2024-03-17T13:33:43;29.37;;;7.13;;
39050;SDS011;24805;55.852;37.644;2024-03-17T13:38:44;27.10;;;6.70;;
39050;SDS011;24805;55.852;37.644;2024-03-17T13:43:45;30.10;;;6.50;;
39050;SDS011;24805;55.852;37.644;2024-03-17T13:48:46;31.53;;;7.93;;
39050;SDS011;24805;55.852;37.644;2024-03-17T13:53:49;28.77;;;6.95;;
39050;SDS011;24805;55.852;37.644;2024-03-17T13:58:50;32.47;;;7.30;;
39050;SDS011;24805;55.852;37.644;2024-03-17T14:03:51;26.67;;;6.50;;
39050;SDS011;24805;55.852;37.644;2024-03-17T14:13:54;29.52;;;7.07;;
39050;SDS011;24805;55.852;37.644;2024-03-17T14:23:56;33.35;;;7.95;;
39050;SDS011;24805;55.852;37.644;2024-03-17T14:28:58;27.17;;;9.23;;
39050;SDS011;24805;55.852;37.644;2024-03-17T14:34:00;24.98;;;7.63;;
39050;SDS011;24805;55.852;37.644;2024-03-17T14:39:01;23.90;;;8.32;;
39050;SDS011;24805;55.852;37.644;2024-03-17T14:44:03;22.40;;;8.57;;
39050;SDS011;24805;55.852;37.644;2024-03-17T14:49:04;43.45;;;8.85;;
39050;SDS011;24805;55.852;37.644;2024-03-17T14:54:06;32.40;;;8.02;;
39050;SDS011;24805;55.852;37.644;2024-03-17T14:59:09;34.53;;;7.90;;
39050;SDS011;24805;55.852;37.644;2024-03-17T15:04:10;26.60;;;6.90;;
39050;SDS011;24805;55.852;37.644;2024-03-17T15:09:11;39.65;;;8.18;;
39050;SDS011;24805;55.852;37.644;2024-03-17T15:14:13;26.20;;;7.00;;
39050;SDS011;24805;55.852;37.644;2024-03-17T15:19:14;47.78;;;8.70;;
39050;SDS011;24805;55.852;37.644;2024-03-17T15:24:15;44.50;;;9.10;;
39050;SDS011;24805;55.852;37.644;2024-03-17T15:29:17;38.38;;;7.32;;
39050;SDS011;24805;55.852;37.644;2024-03-17T15:34:19;32.13;;;8.23;;
39050;SDS011;24805;55.852;37.644;2024-03-17T15:39:20;33.53;;;8.03;;
39050;SDS011;24805;55.852;37.644;2024-03-17T15:44:22;32.65;;;8.30;;
39050;SDS011;24805;55.852;37.644;2024-03-17T15:49:23;34.80;;;9.25;;
39050;SDS011;24805;55.852;37.644;2024-03-17T15:54:25;34.90;;;9.07;;
39050;SDS011;24805;55.852;37.644;2024-03-17T15:59:26;47.30;;;8.13;;
39050;SDS011;24805;55.852;37.644;2024-03-17T16:04:27;37.23;;;7.73;;
39050;SDS011;24805;55.852;37.644;2024-03-17T16:09:28;39.22;;;7.68;;
39050;SDS011;24805;55.852;37.644;2024-03-17T16:14:30;37.53;;;7.87;;
39050;SDS011;24805;55.852;37.644;2024-03-17T16:19:46;31.10;;;7.33;;
39050;SDS011;24805;55.852;37.644;2024-03-17T16:30:10;39.28;;;7.03;;
39050;SDS011;24805;55.852;37.644;2024-03-17T16:35:14;44.10;;;6.90;;
39050;SDS011;24805;55.852;37.644;2024-03-17T16:45:18;42.72;;;7.85;;
39050;SDS011;24805;55.852;37.644;2024-03-17T16:50:20;43.88;;;8.70;;
39050;SDS011;24805;55.852;37.644;2024-03-17T16:55:22;44.10;;;11.10;;
39050;SDS011;24805;55.852;37.644;2024-03-17T17:00:23;41.33;;;10.52;;
39050;SDS011;24805;55.852;37.644;2024-03-17T17:05:26;50.17;;;9.25;;
39050;SDS011;24805;55.852;37.644;2024-03-17T17:10:27;48.90;;;10.17;;
39050;SDS011;24805;55.852;37.644;2024-03-17T17:15:29;36.78;;;8.65;;
39050;SDS011;24805;55.852;37.644;2024-03-17T17:20:30;51.42;;;8.10;;
39050;SDS011;24805;55.852;37.644;2024-03-17T17:25:34;42.05;;;8.75;;
39050;SDS011;24805;55.852;37.644;2024-03-17T17:30:35;40.20;;;9.48;;
39050;SDS011;24805;55.852;37.644;2024-03-17T17:35:37;41.53;;;8.97;;
39050;SDS011;24805;55.852;37.644;2024-03-17T17:40:38;41.87;;;9.60;;
39050;SDS011;24805;55.852;37.644;2024-03-17T17:45:39;52.03;;;9.47;;
39050;SDS011;24805;55.852;37.644;2024-03-17T17:50:40;42.47;;;7.88;;
39050;SDS011;24805;55.852;37.644;2024-03-17T17:55:43;37.28;;;7.93;;
39050;SDS011;24805;55.852;37.644;2024-03-17T18:00:44;56.57;;;8.67;;
39050;SDS011;24805;55.852;37.644;2024-03-17T18:05:45;52.88;;;8.90;;
39050;SDS011;24805;55.852;37.644;2024-03-17T18:10:47;44.47;;;8.70;;
39050;SDS011;24805;55.852;37.644;2024-03-17T18:15:58;61.00;;;8.77;;
39050;SDS011;24805;55.852;37.644;2024-03-17T18:21:00;49.30;;;7.93;;
39050;SDS011;24805;55.852;37.644;2024-03-17T18:26:10;49.65;;;8.45;;
39050;SDS011;24805;55.852;37.644;2024-03-17T18:31:12;47.58;;;8.32;;
39050;SDS011;24805;55.852;37.644;2024-03-17T18:36:13;50.10;;;8.73;;
39050;SDS011;24805;55.852;37.644;2024-03-17T18:41:14;46.87;;;8.27;;
39050;SDS011;24805;55.852;37.644;2024-03-17T18:46:19;41.75;;;8.50;;
39050;SDS011;24805;55.852;37.644;2024-03-17T18:51:22;65.22;;;9.98;;
39050;SDS011;24805;55.852;37.644;2024-03-17T18:56:24;47.92;;;8.55;;
39050;SDS011;24805;55.852;37.644;2024-03-17T19:01:26;45.55;;;9.15;;
39050;SDS011;24805;55.852;37.644;2024-03-17T19:11:29;49.33;;;10.35;;
39050;SDS011;24805;55.852;37.644;2024-03-17T19:16:30;53.88;;;11.05;;
39050;SDS011;24805;55.852;37.644;2024-03-17T19:21:32;39.97;;;9.57;;
39050;SDS011;24805;55.852;37.644;2024-03-17T19:26:36;49.17;;;11.23;;
39050;SDS011;24805;55.852;37.644;2024-03-17T19:31:37;51.85;;;11.95;;
39050;SDS011;24805;55.852;37.644;2024-03-17T19:36:38;58.63;;;12.47;;
39050;SDS011;24805;55.852;37.644;2024-03-17T19:41:39;59.83;;;13.55;;
39050;SDS011;24805;55.852;37.644;2024-03-17T19:46:40;60.17;;;12.87;;
39050;SDS011;24805;55.852;37.644;2024-03-17T19:56:43;52.90;;;12.35;;
39050;SDS011;24805;55.852;37.644;2024-03-17T20:01:45;43.80;;;12.20;;
39050;SDS011;24805;55.852;37.644;2024-03-17T20:06:46;64.40;;;12.27;;
39050;SDS011;24805;55.852;37.644;2024-03-17T20:11:48;49.03;;;12.68;;
39050;SDS011;24805;55.852;37.644;2024-03-17T20:26:54;52.97;;;13.13;;
39050;SDS011;24805;55.852;37.644;2024-03-17T20:31:55;44.45;;;12.25;;
39050;SDS011;24805;55.852;37.644;2024-03-17T20:36:56;46.15;;;12.93;;
39050;SDS011;24805;55.852;37.644;2024-03-17T20:42:02;56.05;;;12.90;;
39050;SDS011;24805;55.852;37.644;2024-03-17T20:47:07;53.95;;;13.13;;
39050;SDS011;24805;55.852;37.644;2024-03-17T20:52:09;60.33;;;14.43;;
39050;SDS011;24805;55.852;37.644;2024-03-17T20:57:10;47.75;;;13.05;;
39050;SDS011;24805;55.852;37.644;2024-03-17T21:02:11;45.95;;;13.30;;
39050;SDS011;24805;55.852;37.644;2024-03-17T21:07:12;63.40;;;15.47;;
39050;SDS011;24805;55.852;37.644;2024-03-17T21:12:15;48.40;;;13.65;;
39050;SDS011;24805;55.852;37.644;2024-03-17T21:17:17;47.33;;;13.70;;
39050;SDS011;24805;55.852;37.644;2024-03-17T21:22:18;44.85;;;12.48;;
39050;SDS011;24805;55.852;37.644;2024-03-17T21:27:20;50.38;;;13.13;;
39050;SDS011;24805;55.852;37.644;2024-03-17T21:32:21;42.83;;;14.03;;
39050;SDS011;24805;55.852;37.644;2024-03-17T21:37:22;51.28;;;15.15;;
39050;SDS011;24805;55.852;37.644;2024-03-17T21:47:44;45.83;;;14.03;;
39050;SDS011;24805;55.852;37.644;2024-03-17T21:52:46;52.45;;;14.68;;
39050;SDS011;24805;55.852;37.644;2024-03-17T21:57:47;51.70;;;14.23;;
39050;SDS011;24805;55.852;37.644;2024-03-17T22:02:48;50.47;;;14.53;;
39050;SDS011;24805;55.852;37.644;2024-03-17T22:07:49;50.37;;;15.70;;
39050;SDS011;24805;55.852;37.644;2024-03-17T22:12:50;46.87;;;14.07;;
39050;SDS011;24805;55.852;37.644;2024-03-17T22:17:51;43.63;;;13.50;;
39050;SDS011;24805;55.852;37.644;2024-03-17T22:22:53;58.05;;;14.45;;
39050;SDS011;24805;55.852;37.644;2024-03-17T22:27:54;54.10;;;15.05;;
39050;SDS011;24805;55.852;37.644;2024-03-17T22:32:55;74.85;;;25.45;;
39050;SDS011;24805;55.852;37.644;2024-03-17T22:37:56;53.57;;;14.27;;
39050;SDS011;24805;55.852;37.644;2024-03-17T22:42:58;54.05;;;16.27;;
39050;SDS011;24805;55.852;37.644;2024-03-17T22:47:59;48.90;;;15.38;;
39050;SDS011;24805;55.852;37.644;2024-03-17T22:53:00;62.57;;;16.17;;
39050;SDS011;24805;55.852;37.644;2024-03-17T22:58:01;48.08;;;15.68;;
39050;SDS011;24805;55.852;37.644;2024-03-17T23:03:02;58.70;;;15.82;;
39050;SDS011;24805;55.852;37.644;2024-03-17T23:08:04;55.67;;;15.13;;
39050;SDS011;24805;55.852;37.644;2024-03-17T23:13:05;45.35;;;15.15;;
39050;SDS011;24805;55.852;37.644;2024-03-17T23:18:07;53.53;;;14.93;;
39050;SDS011;24805;55.852;37.644;2024-03-17T23:23:09;58.30;;;16.08;;
39050;SDS011;24805;55.852;37.644;2024-03-17T23:28:11;48.80;;;14.90;;
39050;SDS011;24805;55.852;37.644;2024-03-17T23:33:13;43.95;;;15.10;;
39050;SDS011;24805;55.852;37.644;2024-03-17T23:38:16;45.63;;;15.75;;
39050;SDS011;24805;55.852;37.644;2024-03-17T23:43:18;52.63;;;15.25;;
39050;SDS011;24805;55.852;37.644;2024-03-17T23:48:19;45.58;;;15.85;;
39050;SDS011;24805;55.852;37.644;2024-03-17T23:53:21;46.30;;;15.60;;
39050;SDS011;24805;55.852;37.644;2024-03-17T23:58:22;48.25;;;16.05;;
